Buffalo, SD

7:47 PM MDT on August 27, 2014 (GMT -0600)
Hettinger Municipal | Change Station
CLOSE
Current Station
Airport
Location: Hettinger,
Elevation: 2703 ft
Nearby Weather Stations

Elev 2703 ft 46.01 °N, 102.66 °W | Updated 54 minutes ago

Clear
Clear
69 °F
Feels Like 69 °F
N
7
Wind Variable Wind from SSE

Today
High -- | Low -- °F
--% Chance of Precip.
Yesterday
High -- | Low -- °F
Precip. -- in
6:09 AM 7:40 PM
Waxing Crescent, 6% visible
Pressure 30.04 in
Visibility 10.0 miles
Clouds Clear
Dew Point 61 °F
Humidity 75%
Rainfall 0.00 in
Snow Depth Not available.
UV 0 out of 12
Pollen 9.60 out of 12
Air Quality Not available.
Flu Activity Not available.
METAR KHEI 280053Z AUTO 15006KT 10SM CLR 21/16 A3005 RMK AO2 SLP173 T02060161

More Conditions Fewer Conditions

Pressure 30.04 in
Visibility 10.0 miles
Clouds Clear
Dew Point 61 °F
Humidity 75%
Rainfall 0.00 in
Snow Depth Not available.
UV 0 out of 12
Pollen 9.60 out of 12
Air Quality Not available.
Flu Activity Not available.
METAR KHEI 280053Z AUTO 15006KT 10SM CLR 21/16 A3005 RMK AO2 SLP173 T02060161

More Conditions Fewer Conditions

10-Day Weather Forecast

Almanac

Astronomy

Aug. 27, 2014 Rise Set
Actual Time 6:09 AM MDT 7:40 PM MDT
Civil Twilight 5:38 AM MDT 8:11 PM MDT
Nautical Twilight 5:00 AM MDT 8:49 PM MDT
Astronomical Twilight 4:19 AM MDT 9:29 PM MDT
Moon 8:15 AM MDT (8/27) 8:24 PM MDT (8/27)
Length of Visible Light 14h 33m
Length of Day
13h 31m
Tomorrow will be 3m 1s shorter.
Waxing Crescent, 6% of the Moon is Illuminated
Today
Waxing Crescent
Sep 2
First Quarter
Sep 8
Full
Sep 15
Last Quarter
Sep 24
New

Today's Extremes

State Highs State Lows

Community

WunderPhotos

Upload Photos

1,747,855 photos uploaded!

Nearby

Snow Depth

Station Depth Elevation
North Rapid Creek 0 in 6130 ft
Blind Park 1 in 6890 ft

Earthquake Activity

City Distance Mag. Time & Date
No recent earthquake activity has been reported nearby.
Minimum magnitude displayed is 2.5.

Coastal Water Temperatures

Place Temperature
No Stations Reporting

Nearby Weather Stations